sensor_id;sensor_type;location;lat;lon;timestamp;temperature;humidity
31765;DHT22;18338;53.240;8.798;2024-02-28T00:02:02;2.00;99.90
31765;DHT22;18338;53.240;8.798;2024-02-28T00:04:28;1.90;99.90
31765;DHT22;18338;53.240;8.798;2024-02-28T00:06:55;1.60;99.90
31765;DHT22;18338;53.240;8.798;2024-02-28T00:09:21;1.50;99.90
31765;DHT22;18338;53.240;8.798;2024-02-28T00:11:48;1.40;99.90
31765;DHT22;18338;53.240;8.798;2024-02-28T00:14:15;1.40;99.90
31765;DHT22;18338;53.240;8.798;2024-02-28T00:16:45;1.50;99.90
31765;DHT22;18338;53.240;8.798;2024-02-28T00:19:12;1.70;99.90
31765;DHT22;18338;53.240;8.798;2024-02-28T00:21:40;1.80;99.90
31765;DHT22;18338;53.240;8.798;2024-02-28T00:24:07;1.90;99.90
31765;DHT22;18338;53.240;8.798;2024-02-28T00:26:35;1.90;99.90
31765;DHT22;18338;53.240;8.798;2024-02-28T00:29:02;2.00;99.90
31765;DHT22;18338;53.240;8.798;2024-02-28T00:31:28;2.10;99.90
31765;DHT22;18338;53.240;8.798;2024-02-28T00:33:55;2.10;99.90
31765;DHT22;18338;53.240;8.798;2024-02-28T00:36:23;2.10;99.90
31765;DHT22;18338;53.240;8.798;2024-02-28T00:38:49;2.20;99.90
31765;DHT22;18338;53.240;8.798;2024-02-28T00:41:16;2.20;99.90
31765;DHT22;18338;53.240;8.798;2024-02-28T00:43:43;2.20;99.90
31765;DHT22;18338;53.240;8.798;2024-02-28T00:46:09;2.20;99.90
31765;DHT22;18338;53.240;8.798;2024-02-28T00:48:41;2.30;99.90
31765;DHT22;18338;53.240;8.798;2024-02-28T00:51:08;2.40;99.90
31765;DHT22;18338;53.240;8.798;2024-02-28T00:53:35;2.40;99.90
31765;DHT22;18338;53.240;8.798;2024-02-28T00:56:02;2.50;99.90
31765;DHT22;18338;53.240;8.798;2024-02-28T00:58:29;2.50;99.90
31765;DHT22;18338;53.240;8.798;2024-02-28T01:00:57;2.50;99.90
31765;DHT22;18338;53.240;8.798;2024-02-28T01:03:24;2.40;99.90
31765;DHT22;18338;53.240;8.798;2024-02-28T01:05:51;2.30;99.90
31765;DHT22;18338;53.240;8.798;2024-02-28T01:08:18;2.20;99.90
31765;DHT22;18338;53.240;8.798;2024-02-28T01:10:45;1.90;99.90
31765;DHT22;18338;53.240;8.798;2024-02-28T01:13:12;1.70;99.90
31765;DHT22;18338;53.240;8.798;2024-02-28T01:15:41;1.50;99.90
31765;DHT22;18338;53.240;8.798;2024-02-28T01:18:09;1.40;99.90
31765;DHT22;18338;53.240;8.798;2024-02-28T01:20:37;1.30;99.90
31765;DHT22;18338;53.240;8.798;2024-02-28T01:23:04;1.10;99.90
31765;DHT22;18338;53.240;8.798;2024-02-28T01:25:30;1.10;99.90
31765;DHT22;18338;53.240;8.798;2024-02-28T01:27:57;1.10;99.90
31765;DHT22;18338;53.240;8.798;2024-02-28T01:30:25;1.00;99.90
31765;DHT22;18338;53.240;8.798;2024-02-28T01:32:51;1.00;99.90
31765;DHT22;18338;53.240;8.798;2024-02-28T01:35:18;1.00;99.90
31765;DHT22;18338;53.240;8.798;2024-02-28T01:37:45;1.10;99.90
31765;DHT22;18338;53.240;8.798;2024-02-28T01:40:12;1.20;99.90
31765;DHT22;18338;53.240;8.798;2024-02-28T01:42:39;1.40;99.90
31765;DHT22;18338;53.240;8.798;2024-02-28T01:45:06;1.50;99.90
31765;DHT22;18338;53.240;8.798;2024-02-28T01:47:35;1.60;99.90
31765;DHT22;18338;53.240;8.798;2024-02-28T01:50:04;1.70;99.90
31765;DHT22;18338;53.240;8.798;2024-02-28T01:52:31;1.80;99.90
31765;DHT22;18338;53.240;8.798;2024-02-28T01:54:58;2.00;99.90
31765;DHT22;18338;53.240;8.798;2024-02-28T01:57:24;2.00;99.90
31765;DHT22;18338;53.240;8.798;2024-02-28T01:59:52;2.10;99.90
31765;DHT22;18338;53.240;8.798;2024-02-28T02:02:21;2.10;99.90
31765;DHT22;18338;53.240;8.798;2024-02-28T02:04:48;2.20;99.90
31765;DHT22;18338;53.240;8.798;2024-02-28T02:07:14;2.20;99.90
31765;DHT22;18338;53.240;8.798;2024-02-28T02:09:41;2.30;99.90
31765;DHT22;18338;53.240;8.798;2024-02-28T02:12:08;2.30;99.90
31765;DHT22;18338;53.240;8.798;2024-02-28T02:14:34;2.30;99.90
31765;DHT22;18338;53.240;8.798;2024-02-28T02:17:01;2.40;99.90
31765;DHT22;18338;53.240;8.798;2024-02-28T02:19:28;2.40;99.90
31765;DHT22;18338;53.240;8.798;2024-02-28T02:21:57;2.50;99.90
31765;DHT22;18338;53.240;8.798;2024-02-28T02:24:24;2.40;99.90
31765;DHT22;18338;53.240;8.798;2024-02-28T02:26:57;2.40;99.90
31765;DHT22;18338;53.240;8.798;2024-02-28T02:29:24;2.50;99.90
31765;DHT22;18338;53.240;8.798;2024-02-28T02:31:50;2.50;99.90
31765;DHT22;18338;53.240;8.798;2024-02-28T02:34:17;2.50;99.90
31765;DHT22;18338;53.240;8.798;2024-02-28T02:36:44;2.60;99.90
31765;DHT22;18338;53.240;8.798;2024-02-28T02:39:10;2.60;99.90
31765;DHT22;18338;53.240;8.798;2024-02-28T02:41:37;2.60;99.90
31765;DHT22;18338;53.240;8.798;2024-02-28T02:44:04;2.70;99.90
31765;DHT22;18338;53.240;8.798;2024-02-28T02:46:30;2.70;99.90
31765;DHT22;18338;53.240;8.798;2024-02-28T02:48:57;2.80;99.90
31765;DHT22;18338;53.240;8.798;2024-02-28T02:51:24;2.80;99.90
31765;DHT22;18338;53.240;8.798;2024-02-28T02:53:52;2.90;99.90
31765;DHT22;18338;53.240;8.798;2024-02-28T02:56:20;2.90;99.90
31765;DHT22;18338;53.240;8.798;2024-02-28T02:58:46;2.90;99.90
31765;DHT22;18338;53.240;8.798;2024-02-28T03:01:13;2.90;99.90
31765;DHT22;18338;53.240;8.798;2024-02-28T03:03:40;2.90;99.90
31765;DHT22;18338;53.240;8.798;2024-02-28T03:06:07;2.90;99.90
31765;DHT22;18338;53.240;8.798;2024-02-28T03:08:34;2.90;99.90
31765;DHT22;18338;53.240;8.798;2024-02-28T03:11:01;2.90;99.90
31765;DHT22;18338;53.240;8.798;2024-02-28T03:13:30;2.90;99.90
31765;DHT22;18338;53.240;8.798;2024-02-28T03:15:57;2.90;99.90
31765;DHT22;18338;53.240;8.798;2024-02-28T03:18:24;2.90;99.90
31765;DHT22;18338;53.240;8.798;2024-02-28T03:20:51;2.90;99.90
31765;DHT22;18338;53.240;8.798;2024-02-28T03:23:17;3.00;99.90
31765;DHT22;18338;53.240;8.798;2024-02-28T03:25:44;2.90;99.90
31765;DHT22;18338;53.240;8.798;2024-02-28T03:28:11;2.90;99.90
31765;DHT22;18338;53.240;8.798;2024-02-28T03:30:38;2.90;99.90
31765;DHT22;18338;53.240;8.798;2024-02-28T03:33:05;2.90;99.90
31765;DHT22;18338;53.240;8.798;2024-02-28T03:35:32;2.90;99.90
31765;DHT22;18338;53.240;8.798;2024-02-28T03:37:58;2.90;99.90
31765;DHT22;18338;53.240;8.798;2024-02-28T03:40:25;2.90;99.90
31765;DHT22;18338;53.240;8.798;2024-02-28T03:42:52;2.90;99.90
31765;DHT22;18338;53.240;8.798;2024-02-28T03:45:18;2.90;99.90
31765;DHT22;18338;53.240;8.798;2024-02-28T03:47:46;2.90;99.90
31765;DHT22;18338;53.240;8.798;2024-02-28T03:50:13;2.90;99.90
31765;DHT22;18338;53.240;8.798;2024-02-28T03:52:40;2.90;99.90
31765;DHT22;18338;53.240;8.798;2024-02-28T03:55:07;2.90;99.90
31765;DHT22;18338;53.240;8.798;2024-02-28T03:57:33;2.90;99.90
31765;DHT22;18338;53.240;8.798;2024-02-28T04:00:01;2.90;99.90
31765;DHT22;18338;53.240;8.798;2024-02-28T04:02:28;2.90;99.90
31765;DHT22;18338;53.240;8.798;2024-02-28T04:04:55;2.90;99.90
31765;DHT22;18338;53.240;8.798;2024-02-28T04:07:22;2.80;99.90
31765;DHT22;18338;53.240;8.798;2024-02-28T04:09:48;2.80;99.90
31765;DHT22;18338;53.240;8.798;2024-02-28T04:12:15;2.80;99.90
31765;DHT22;18338;53.240;8.798;2024-02-28T04:14:42;2.70;99.90
31765;DHT22;18338;53.240;8.798;2024-02-28T04:17:09;2.70;99.90
31765;DHT22;18338;53.240;8.798;2024-02-28T04:19:35;2.70;99.90
31765;DHT22;18338;53.240;8.798;2024-02-28T04:22:06;2.60;99.90
31765;DHT22;18338;53.240;8.798;2024-02-28T04:24:32;2.60;99.90
31765;DHT22;18338;53.240;8.798;2024-02-28T04:26:59;2.50;99.90
31765;DHT22;18338;53.240;8.798;2024-02-28T04:29:26;2.40;99.90
31765;DHT22;18338;53.240;8.798;2024-02-28T04:31:53;2.30;99.90
31765;DHT22;18338;53.240;8.798;2024-02-28T04:34:19;2.10;99.90
31765;DHT22;18338;53.240;8.798;2024-02-28T04:36:46;1.90;99.90
31765;DHT22;18338;53.240;8.798;2024-02-28T04:39:12;1.80;99.90
31765;DHT22;18338;53.240;8.798;2024-02-28T04:41:39;1.70;99.90
31765;DHT22;18338;53.240;8.798;2024-02-28T04:44:06;1.60;99.90
31765;DHT22;18338;53.240;8.798;2024-02-28T04:46:34;1.60;99.90
31765;DHT22;18338;53.240;8.798;2024-02-28T04:49:00;1.60;99.90
31765;DHT22;18338;53.240;8.798;2024-02-28T04:51:28;1.60;99.90
31765;DHT22;18338;53.240;8.798;2024-02-28T04:53:54;1.70;99.90
31765;DHT22;18338;53.240;8.798;2024-02-28T04:56:21;1.80;99.90
31765;DHT22;18338;53.240;8.798;2024-02-28T04:58:48;1.90;99.90
31765;DHT22;18338;53.240;8.798;2024-02-28T05:01:14;1.90;99.90
31765;DHT22;18338;53.240;8.798;2024-02-28T05:03:47;2.00;99.90
31765;DHT22;18338;53.240;8.798;2024-02-28T05:06:13;2.00;99.90
31765;DHT22;18338;53.240;8.798;2024-02-28T05:08:40;2.10;99.90
31765;DHT22;18338;53.240;8.798;2024-02-28T05:11:07;2.10;99.90
31765;DHT22;18338;53.240;8.798;2024-02-28T05:13:35;2.10;99.90
31765;DHT22;18338;53.240;8.798;2024-02-28T05:16:01;2.20;99.90
31765;DHT22;18338;53.240;8.798;2024-02-28T05:18:28;2.20;99.90
31765;DHT22;18338;53.240;8.798;2024-02-28T05:20:55;2.20;99.90
31765;DHT22;18338;53.240;8.798;2024-02-28T05:23:22;2.20;99.90
31765;DHT22;18338;53.240;8.798;2024-02-28T05:25:49;2.20;99.90
31765;DHT22;18338;53.240;8.798;2024-02-28T05:28:16;2.20;99.90
31765;DHT22;18338;53.240;8.798;2024-02-28T05:30:43;2.20;99.90
31765;DHT22;18338;53.240;8.798;2024-02-28T05:33:14;2.10;99.90
31765;DHT22;18338;53.240;8.798;2024-02-28T05:35:40;2.10;99.90
31765;DHT22;18338;53.240;8.798;2024-02-28T05:38:07;2.10;99.90
31765;DHT22;18338;53.240;8.798;2024-02-28T05:40:34;2.10;99.90
31765;DHT22;18338;53.240;8.798;2024-02-28T05:43:01;2.10;99.90
31765;DHT22;18338;53.240;8.798;2024-02-28T05:45:28;2.10;99.90
31765;DHT22;18338;53.240;8.798;2024-02-28T05:47:55;2.10;99.90
31765;DHT22;18338;53.240;8.798;2024-02-28T05:50:22;2.20;99.90
31765;DHT22;18338;53.240;8.798;2024-02-28T05:52:48;2.20;99.90
31765;DHT22;18338;53.240;8.798;2024-02-28T05:55:15;2.10;99.90
31765;DHT22;18338;53.240;8.798;2024-02-28T05:57:42;2.10;99.90
31765;DHT22;18338;53.240;8.798;2024-02-28T06:00:09;2.10;99.90
31765;DHT22;18338;53.240;8.798;2024-02-28T06:02:40;2.20;99.90
31765;DHT22;18338;53.240;8.798;2024-02-28T06:05:08;2.20;99.90
31765;DHT22;18338;53.240;8.798;2024-02-28T06:07:35;2.20;99.90
31765;DHT22;18338;53.240;8.798;2024-02-28T06:10:02;2.10;99.90
31765;DHT22;18338;53.240;8.798;2024-02-28T06:12:28;2.10;99.90
31765;DHT22;18338;53.240;8.798;2024-02-28T06:14:55;2.20;99.90
31765;DHT22;18338;53.240;8.798;2024-02-28T06:17:22;2.20;99.90
31765;DHT22;18338;53.240;8.798;2024-02-28T06:19:48;2.20;99.90
31765;DHT22;18338;53.240;8.798;2024-02-28T06:22:15;2.10;99.90
31765;DHT22;18338;53.240;8.798;2024-02-28T06:24:42;2.00;99.90
31765;DHT22;18338;53.240;8.798;2024-02-28T06:27:08;2.00;99.90
31765;DHT22;18338;53.240;8.798;2024-02-28T06:29:39;1.90;99.90
31765;DHT22;18338;53.240;8.798;2024-02-28T06:32:07;1.90;99.90
31765;DHT22;18338;53.240;8.798;2024-02-28T06:34:34;1.90;99.90
31765;DHT22;18338;53.240;8.798;2024-02-28T06:37:01;2.00;99.90
31765;DHT22;18338;53.240;8.798;2024-02-28T06:39:28;2.00;99.90
31765;DHT22;18338;53.240;8.798;2024-02-28T06:41:55;2.10;99.90
31765;DHT22;18338;53.240;8.798;2024-02-28T06:44:21;2.10;99.90
31765;DHT22;18338;53.240;8.798;2024-02-28T06:46:48;2.10;99.90
31765;DHT22;18338;53.240;8.798;2024-02-28T06:49:15;2.10;99.90
31765;DHT22;18338;53.240;8.798;2024-02-28T06:51:44;2.00;99.90
31765;DHT22;18338;53.240;8.798;2024-02-28T06:54:11;2.10;99.90
31765;DHT22;18338;53.240;8.798;2024-02-28T06:56:38;2.10;99.90
31765;DHT22;18338;53.240;8.798;2024-02-28T06:59:05;2.10;99.90
31765;DHT22;18338;53.240;8.798;2024-02-28T07:01:33;2.10;99.90
31765;DHT22;18338;53.240;8.798;2024-02-28T07:04:00;2.20;99.90
31765;DHT22;18338;53.240;8.798;2024-02-28T07:06:27;2.20;99.90
31765;DHT22;18338;53.240;8.798;2024-02-28T07:08:54;2.20;99.90
31765;DHT22;18338;53.240;8.798;2024-02-28T07:11:20;2.20;99.90
31765;DHT22;18338;53.240;8.798;2024-02-28T07:13:48;2.30;99.90
31765;DHT22;18338;53.240;8.798;2024-02-28T07:16:14;2.40;99.90
31765;DHT22;18338;53.240;8.798;2024-02-28T07:18:41;2.40;99.90
31765;DHT22;18338;53.240;8.798;2024-02-28T07:21:08;2.30;99.90
31765;DHT22;18338;53.240;8.798;2024-02-28T07:23:39;2.40;99.90
31765;DHT22;18338;53.240;8.798;2024-02-28T07:26:06;2.50;99.90
31765;DHT22;18338;53.240;8.798;2024-02-28T07:28:44;2.50;99.90
31765;DHT22;18338;53.240;8.798;2024-02-28T07:31:16;2.50;99.90
31765;DHT22;18338;53.240;8.798;2024-02-28T07:33:43;2.50;99.90
31765;DHT22;18338;53.240;8.798;2024-02-28T07:36:11;2.50;99.90
31765;DHT22;18338;53.240;8.798;2024-02-28T07:38:37;2.60;99.90
31765;DHT22;18338;53.240;8.798;2024-02-28T07:41:04;2.60;99.90
31765;DHT22;18338;53.240;8.798;2024-02-28T07:43:31;2.60;99.90
31765;DHT22;18338;53.240;8.798;2024-02-28T07:46:07;2.70;99.90
31765;DHT22;18338;53.240;8.798;2024-02-28T07:48:34;2.80;99.90
31765;DHT22;18338;53.240;8.798;2024-02-28T07:51:03;2.80;99.90
31765;DHT22;18338;53.240;8.798;2024-02-28T07:53:30;2.70;99.90
31765;DHT22;18338;53.240;8.798;2024-02-28T07:55:57;2.70;99.90
31765;DHT22;18338;53.240;8.798;2024-02-28T07:58:24;2.60;99.90
31765;DHT22;18338;53.240;8.798;2024-02-28T08:00:51;2.60;99.90
31765;DHT22;18338;53.240;8.798;2024-02-28T08:03:21;2.60;99.90
31765;DHT22;18338;53.240;8.798;2024-02-28T08:05:48;2.70;99.90
31765;DHT22;18338;53.240;8.798;2024-02-28T08:08:15;2.70;99.90
31765;DHT22;18338;53.240;8.798;2024-02-28T08:10:41;2.80;99.90
31765;DHT22;18338;53.240;8.798;2024-02-28T08:13:08;2.90;99.90
31765;DHT22;18338;53.240;8.798;2024-02-28T08:15:35;3.00;99.90
31765;DHT22;18338;53.240;8.798;2024-02-28T08:18:02;3.10;99.90
31765;DHT22;18338;53.240;8.798;2024-02-28T08:20:29;3.10;99.90
31765;DHT22;18338;53.240;8.798;2024-02-28T08:22:56;3.10;99.90
31765;DHT22;18338;53.240;8.798;2024-02-28T08:25:23;3.10;99.90
31765;DHT22;18338;53.240;8.798;2024-02-28T08:27:50;3.50;99.90
31765;DHT22;18338;53.240;8.798;2024-02-28T08:30:17;3.60;99.90
31765;DHT22;18338;53.240;8.798;2024-02-28T08:32:44;3.90;99.90
31765;DHT22;18338;53.240;8.798;2024-02-28T08:35:10;4.20;99.90
31765;DHT22;18338;53.240;8.798;2024-02-28T08:37:40;4.80;99.90
31765;DHT22;18338;53.240;8.798;2024-02-28T08:40:07;5.10;99.90
31765;DHT22;18338;53.240;8.798;2024-02-28T08:42:35;5.20;99.90
31765;DHT22;18338;53.240;8.798;2024-02-28T08:45:01;5.10;99.90
31765;DHT22;18338;53.240;8.798;2024-02-28T08:47:30;4.90;99.90
31765;DHT22;18338;53.240;8.798;2024-02-28T08:49:56;4.60;99.90
31765;DHT22;18338;53.240;8.798;2024-02-28T08:52:23;4.50;99.90
31765;DHT22;18338;53.240;8.798;2024-02-28T08:54:50;4.50;99.90
31765;DHT22;18338;53.240;8.798;2024-02-28T08:57:17;4.40;99.90
31765;DHT22;18338;53.240;8.798;2024-02-28T08:59:43;4.30;99.90
31765;DHT22;18338;53.240;8.798;2024-02-28T09:02:10;4.40;99.90
31765;DHT22;18338;53.240;8.798;2024-02-28T09:04:37;4.30;99.90
31765;DHT22;18338;53.240;8.798;2024-02-28T09:07:04;4.40;99.90
31765;DHT22;18338;53.240;8.798;2024-02-28T09:09:31;4.40;99.90
31765;DHT22;18338;53.240;8.798;2024-02-28T09:12:03;4.20;99.90
31765;DHT22;18338;53.240;8.798;2024-02-28T09:14:30;4.10;99.90
31765;DHT22;18338;53.240;8.798;2024-02-28T09:16:57;4.10;99.90
31765;DHT22;18338;53.240;8.798;2024-02-28T09:19:30;4.00;99.90
31765;DHT22;18338;53.240;8.798;2024-02-28T09:21:57;4.10;99.90
31765;DHT22;18338;53.240;8.798;2024-02-28T09:24:24;4.10;99.90
31765;DHT22;18338;53.240;8.798;2024-02-28T09:26:51;4.10;99.90
31765;DHT22;18338;53.240;8.798;2024-02-28T09:29:18;4.10;99.90
31765;DHT22;18338;53.240;8.798;2024-02-28T09:31:45;4.10;99.90
31765;DHT22;18338;53.240;8.798;2024-02-28T09:34:11;4.20;99.90
31765;DHT22;18338;53.240;8.798;2024-02-28T09:36:42;4.00;99.90
31765;DHT22;18338;53.240;8.798;2024-02-28T09:39:12;4.20;99.90
31765;DHT22;18338;53.240;8.798;2024-02-28T09:41:40;4.30;99.90
31765;DHT22;18338;53.240;8.798;2024-02-28T09:44:08;4.40;99.90
31765;DHT22;18338;53.240;8.798;2024-02-28T09:46:35;4.60;99.90
31765;DHT22;18338;53.240;8.798;2024-02-28T09:49:03;4.60;99.90
31765;DHT22;18338;53.240;8.798;2024-02-28T09:51:35;4.60;99.90
31765;DHT22;18338;53.240;8.798;2024-02-28T09:54:03;4.60;99.90
31765;DHT22;18338;53.240;8.798;2024-02-28T09:56:31;4.80;99.90
31765;DHT22;18338;53.240;8.798;2024-02-28T09:58:58;4.80;99.90
31765;DHT22;18338;53.240;8.798;2024-02-28T10:01:26;5.00;99.90
31765;DHT22;18338;53.240;8.798;2024-02-28T10:03:54;5.00;99.90
31765;DHT22;18338;53.240;8.798;2024-02-28T10:06:21;5.10;99.90
31765;DHT22;18338;53.240;8.798;2024-02-28T10:08:48;5.10;99.90
31765;DHT22;18338;53.240;8.798;2024-02-28T10:11:22;5.10;99.90
31765;DHT22;18338;53.240;8.798;2024-02-28T10:13:50;5.10;99.90
31765;DHT22;18338;53.240;8.798;2024-02-28T10:16:16;4.90;99.90
31765;DHT22;18338;53.240;8.798;2024-02-28T10:18:44;4.90;99.90
31765;DHT22;18338;53.240;8.798;2024-02-28T10:21:11;4.90;99.90
31765;DHT22;18338;53.240;8.798;2024-02-28T10:23:42;4.80;99.90
31765;DHT22;18338;53.240;8.798;2024-02-28T10:26:12;4.80;99.90
31765;DHT22;18338;53.240;8.798;2024-02-28T10:28:40;4.90;99.90
31765;DHT22;18338;53.240;8.798;2024-02-28T10:31:07;5.10;99.90
31765;DHT22;18338;53.240;8.798;2024-02-28T10:33:34;5.30;99.90
31765;DHT22;18338;53.240;8.798;2024-02-28T10:36:04;5.40;99.90
31765;DHT22;18338;53.240;8.798;2024-02-28T10:38:32;5.50;99.90
31765;DHT22;18338;53.240;8.798;2024-02-28T10:41:03;5.50;99.90
31765;DHT22;18338;53.240;8.798;2024-02-28T10:43:31;5.60;99.90
31765;DHT22;18338;53.240;8.798;2024-02-28T10:45:58;5.70;99.90
31765;DHT22;18338;53.240;8.798;2024-02-28T10:48:30;5.70;99.90
31765;DHT22;18338;53.240;8.798;2024-02-28T10:50:58;5.60;99.90
31765;DHT22;18338;53.240;8.798;2024-02-28T10:53:41;5.60;99.90
31765;DHT22;18338;53.240;8.798;2024-02-28T10:56:11;5.60;99.90
31765;DHT22;18338;53.240;8.798;2024-02-28T10:58:49;5.50;99.90
31765;DHT22;18338;53.240;8.798;2024-02-28T11:01:17;5.80;99.90
31765;DHT22;18338;53.240;8.798;2024-02-28T11:03:47;6.00;99.90
31765;DHT22;18338;53.240;8.798;2024-02-28T11:06:19;6.00;99.90
31765;DHT22;18338;53.240;8.798;2024-02-28T11:08:49;6.20;99.90
31765;DHT22;18338;53.240;8.798;2024-02-28T11:11:20;6.40;99.90
31765;DHT22;18338;53.240;8.798;2024-02-28T11:13:55;6.40;99.90
31765;DHT22;18338;53.240;8.798;2024-02-28T11:16:30;6.70;99.90
31765;DHT22;18338;53.240;8.798;2024-02-28T11:18:57;6.80;99.90
31765;DHT22;18338;53.240;8.798;2024-02-28T11:21:28;6.90;99.90
31765;DHT22;18338;53.240;8.798;2024-02-28T11:24:01;7.00;99.90
31765;DHT22;18338;53.240;8.798;2024-02-28T11:26:28;7.10;99.90
31765;DHT22;18338;53.240;8.798;2024-02-28T11:28:55;7.20;99.90
31765;DHT22;18338;53.240;8.798;2024-02-28T11:31:22;7.00;99.90
31765;DHT22;18338;53.240;8.798;2024-02-28T11:33:49;7.00;99.90
31765;DHT22;18338;53.240;8.798;2024-02-28T11:36:16;6.80;99.90
31765;DHT22;18338;53.240;8.798;2024-02-28T11:38:43;6.70;99.90
31765;DHT22;18338;53.240;8.798;2024-02-28T11:41:10;6.70;99.90
31765;DHT22;18338;53.240;8.798;2024-02-28T11:43:37;6.70;99.90
31765;DHT22;18338;53.240;8.798;2024-02-28T11:46:17;6.70;99.90
31765;DHT22;18338;53.240;8.798;2024-02-28T11:48:46;7.00;99.90
31765;DHT22;18338;53.240;8.798;2024-02-28T11:51:13;7.00;99.90
31765;DHT22;18338;53.240;8.798;2024-02-28T11:53:39;7.10;99.90
31765;DHT22;18338;53.240;8.798;2024-02-28T11:56:07;7.20;99.90
31765;DHT22;18338;53.240;8.798;2024-02-28T11:58:34;7.10;99.90
31765;DHT22;18338;53.240;8.798;2024-02-28T12:01:01;7.00;99.90
31765;DHT22;18338;53.240;8.798;2024-02-28T12:03:28;7.20;99.90
31765;DHT22;18338;53.240;8.798;2024-02-28T12:05:55;7.00;99.90
31765;DHT22;18338;53.240;8.798;2024-02-28T12:08:22;7.20;99.90
31765;DHT22;18338;53.240;8.798;2024-02-28T12:10:52;7.30;99.90
31765;DHT22;18338;53.240;8.798;2024-02-28T12:13:19;7.40;99.90
31765;DHT22;18338;53.240;8.798;2024-02-28T12:15:47;7.50;99.90
31765;DHT22;18338;53.240;8.798;2024-02-28T12:18:15;7.50;99.90
31765;DHT22;18338;53.240;8.798;2024-02-28T12:20:42;7.90;99.90
31765;DHT22;18338;53.240;8.798;2024-02-28T12:23:09;7.90;99.90
31765;DHT22;18338;53.240;8.798;2024-02-28T12:25:36;7.70;99.90
31765;DHT22;18338;53.240;8.798;2024-02-28T12:28:04;7.60;99.90
31765;DHT22;18338;53.240;8.798;2024-02-28T12:30:40;7.50;99.90
31765;DHT22;18338;53.240;8.798;2024-02-28T12:33:11;7.50;99.90
31765;DHT22;18338;53.240;8.798;2024-02-28T12:35:41;7.50;99.90
31765;DHT22;18338;53.240;8.798;2024-02-28T12:38:08;7.40;99.90
31765;DHT22;18338;53.240;8.798;2024-02-28T12:40:36;7.30;99.90
31765;DHT22;18338;53.240;8.798;2024-02-28T12:43:02;7.30;99.90
31765;DHT22;18338;53.240;8.798;2024-02-28T12:45:29;7.40;99.90
31765;DHT22;18338;53.240;8.798;2024-02-28T12:47:57;7.40;99.90
31765;DHT22;18338;53.240;8.798;2024-02-28T12:50:24;7.50;99.90
31765;DHT22;18338;53.240;8.798;2024-02-28T12:52:50;7.70;99.90
31765;DHT22;18338;53.240;8.798;2024-02-28T12:55:20;7.80;99.90
31765;DHT22;18338;53.240;8.798;2024-02-28T12:57:50;7.80;99.90
31765;DHT22;18338;53.240;8.798;2024-02-28T13:00:17;7.80;99.90
31765;DHT22;18338;53.240;8.798;2024-02-28T13:02:44;8.00;99.90
31765;DHT22;18338;53.240;8.798;2024-02-28T13:05:11;8.00;99.90
31765;DHT22;18338;53.240;8.798;2024-02-28T13:07:40;7.90;99.90
31765;DHT22;18338;53.240;8.798;2024-02-28T13:10:07;7.80;99.90
31765;DHT22;18338;53.240;8.798;2024-02-28T13:12:46;8.00;99.90
31765;DHT22;18338;53.240;8.798;2024-02-28T13:15:13;8.60;99.90
31765;DHT22;18338;53.240;8.798;2024-02-28T13:17:40;8.90;99.90
31765;DHT22;18338;53.240;8.798;2024-02-28T13:20:08;10.00;99.90
31765;DHT22;18338;53.240;8.798;2024-02-28T13:22:35;10.40;99.90
31765;DHT22;18338;53.240;8.798;2024-02-28T13:25:01;11.20;99.90
31765;DHT22;18338;53.240;8.798;2024-02-28T13:27:29;12.00;99.90
31765;DHT22;18338;53.240;8.798;2024-02-28T13:29:56;11.80;99.90
31765;DHT22;18338;53.240;8.798;2024-02-28T13:32:23;11.10;99.90
31765;DHT22;18338;53.240;8.798;2024-02-28T13:34:49;10.90;99.90
31765;DHT22;18338;53.240;8.798;2024-02-28T13:37:17;10.60;99.90
31765;DHT22;18338;53.240;8.798;2024-02-28T13:39:43;10.10;99.90
31765;DHT22;18338;53.240;8.798;2024-02-28T13:42:10;9.60;99.90
31765;DHT22;18338;53.240;8.798;2024-02-28T13:44:37;9.30;99.90
31765;DHT22;18338;53.240;8.798;2024-02-28T13:47:04;9.60;99.90
31765;DHT22;18338;53.240;8.798;2024-02-28T13:49:31;9.40;99.90
31765;DHT22;18338;53.240;8.798;2024-02-28T13:51:58;9.30;99.90
31765;DHT22;18338;53.240;8.798;2024-02-28T13:54:25;9.10;99.90
31765;DHT22;18338;53.240;8.798;2024-02-28T13:56:51;9.10;99.90
31765;DHT22;18338;53.240;8.798;2024-02-28T13:59:18;9.10;99.90
31765;DHT22;18338;53.240;8.798;2024-02-28T14:01:45;8.90;99.90
31765;DHT22;18338;53.240;8.798;2024-02-28T14:04:12;8.70;99.90
31765;DHT22;18338;53.240;8.798;2024-02-28T14:06:39;8.70;99.90
31765;DHT22;18338;53.240;8.798;2024-02-28T14:09:05;8.60;99.90
31765;DHT22;18338;53.240;8.798;2024-02-28T14:11:32;8.50;99.90
31765;DHT22;18338;53.240;8.798;2024-02-28T14:13:59;8.50;99.90
31765;DHT22;18338;53.240;8.798;2024-02-28T14:16:26;8.60;99.90
31765;DHT22;18338;53.240;8.798;2024-02-28T14:18:52;8.60;99.90
31765;DHT22;18338;53.240;8.798;2024-02-28T14:21:19;8.80;99.90
31765;DHT22;18338;53.240;8.798;2024-02-28T14:23:46;8.80;99.90
31765;DHT22;18338;53.240;8.798;2024-02-28T14:26:17;8.70;99.90
31765;DHT22;18338;53.240;8.798;2024-02-28T14:28:44;8.60;99.90
31765;DHT22;18338;53.240;8.798;2024-02-28T14:31:11;8.50;99.90
31765;DHT22;18338;53.240;8.798;2024-02-28T14:33:37;8.30;99.90
31765;DHT22;18338;53.240;8.798;2024-02-28T14:36:04;8.10;99.90
31765;DHT22;18338;53.240;8.798;2024-02-28T14:38:32;8.00;99.90
31765;DHT22;18338;53.240;8.798;2024-02-28T14:40:58;7.90;99.90
31765;DHT22;18338;53.240;8.798;2024-02-28T14:43:25;7.80;99.90
31765;DHT22;18338;53.240;8.798;2024-02-28T14:45:55;7.80;99.90
31765;DHT22;18338;53.240;8.798;2024-02-28T14:48:22;7.70;99.90
31765;DHT22;18338;53.240;8.798;2024-02-28T14:50:49;7.80;99.90
31765;DHT22;18338;53.240;8.798;2024-02-28T14:53:15;7.80;99.90
31765;DHT22;18338;53.240;8.798;2024-02-28T14:55:45;7.80;99.90
31765;DHT22;18338;53.240;8.798;2024-02-28T14:58:13;7.70;99.90
31765;DHT22;18338;53.240;8.798;2024-02-28T15:00:40;7.60;99.90
31765;DHT22;18338;53.240;8.798;2024-02-28T15:03:07;7.60;99.90
31765;DHT22;18338;53.240;8.798;2024-02-28T15:05:34;7.60;99.90
31765;DHT22;18338;53.240;8.798;2024-02-28T15:08:01;7.70;99.90
31765;DHT22;18338;53.240;8.798;2024-02-28T15:10:28;7.70;99.90
31765;DHT22;18338;53.240;8.798;2024-02-28T15:12:55;7.70;99.90
31765;DHT22;18338;53.240;8.798;2024-02-28T15:15:22;7.80;99.90
31765;DHT22;18338;53.240;8.798;2024-02-28T15:17:49;7.80;99.90
31765;DHT22;18338;53.240;8.798;2024-02-28T15:20:16;7.70;99.90
31765;DHT22;18338;53.240;8.798;2024-02-28T15:22:43;7.80;99.90
31765;DHT22;18338;53.240;8.798;2024-02-28T15:25:12;8.00;99.90
31765;DHT22;18338;53.240;8.798;2024-02-28T15:27:39;7.90;99.90
31765;DHT22;18338;53.240;8.798;2024-02-28T15:30:06;7.90;99.90
31765;DHT22;18338;53.240;8.798;2024-02-28T15:32:34;7.90;99.90
31765;DHT22;18338;53.240;8.798;2024-02-28T15:35:01;7.70;99.90
31765;DHT22;18338;53.240;8.798;2024-02-28T15:37:27;7.80;99.90
31765;DHT22;18338;53.240;8.798;2024-02-28T15:39:54;7.70;99.90
31765;DHT22;18338;53.240;8.798;2024-02-28T15:42:22;7.60;99.90
31765;DHT22;18338;53.240;8.798;2024-02-28T15:44:48;7.60;99.90
31765;DHT22;18338;53.240;8.798;2024-02-28T15:47:15;7.50;99.90